Time;durP1;ratioP1;P1;durP2;ratioP2;P2;SDS_P1;SDS_P2;PMS_P1;PMS_P2;Temp;Humidity;BMP_temperature;BMP_pressure;BME280_temperature;BME280_humidity;BME280_pressure;Samples;Min_cycle;Max_cycle;Signal;HPM_P1;HPM_P2
2023/01/21 00:00:52;;;;;;;17.20;12.37;;;;;;;3.74;100.00;94291.59;5052833;28;20492;-80
2023/01/21 00:03:19;;;;;;;17.27;12.90;;;;;;;3.76;100.00;94286.31;5052833;28;20453;-80
2023/01/21 00:05:46;;;;;;;16.67;12.27;;;;;;;3.55;100.00;94289.44;5052559;28;20441;-80
2023/01/21 00:08:14;;;;;;;20.57;13.23;;;;;;;3.71;100.00;94292.63;5052631;28;20464;-80
2023/01/21 00:10:41;;;;;;;18.57;13.87;;;;;;;3.59;100.00;94292.66;5052497;28;20452;-80
2023/01/21 00:13:07;;;;;;;17.83;12.43;;;;;;;3.74;100.00;94291.59;5052748;28;20449;-80
2023/01/21 00:15:35;;;;;;;17.20;12.30;;;;;;;3.57;100.00;94304.88;5052662;28;20452;-79
2023/01/21 00:18:02;;;;;;;21.43;14.27;;;;;;;3.72;100.00;94298.66;5052274;28;20442;-79
2023/01/21 00:20:29;;;;;;;17.67;12.50;;;;;;;3.74;100.00;94299.38;5052633;28;20845;-79
2023/01/21 00:22:56;;;;;;;16.83;13.30;;;;;;;3.66;100.00;94302.50;5052062;28;20441;-79
2023/01/21 00:25:24;;;;;;;18.93;14.37;;;;;;;3.72;100.00;94283.91;5052555;28;20490;-80
2023/01/21 00:27:51;;;;;;;18.50;11.30;;;;;;;3.62;100.00;94282.06;5052121;28;20467;-79
2023/01/21 00:30:19;;;;;;;16.57;11.90;;;;;;;3.77;100.00;94280.22;5052298;28;20437;-80
2023/01/21 00:32:46;;;;;;;19.60;12.30;;;;;;;3.62;100.00;94282.91;5052108;28;20433;-80
2023/01/21 00:35:13;;;;;;;17.23;12.37;;;;;;;3.76;100.00;94299.28;5051910;28;20525;-80
2023/01/21 00:37:40;;;;;;;19.27;11.63;;;;;;;3.88;100.00;94290.69;5052214;28;20535;-79
2023/01/21 00:40:07;;;;;;;13.03;10.60;;;;;;;3.76;100.00;94281.13;5052352;28;20500;-80
2023/01/21 00:42:35;;;;;;;16.50;12.30;;;;;;;3.75;100.00;94267.31;5052221;28;20441;-80
2023/01/21 00:45:02;;;;;;;15.50;10.70;;;;;;;3.70;100.00;94270.22;5052340;28;20974;-80
2023/01/21 00:47:29;;;;;;;15.70;12.60;;;;;;;3.72;100.00;94291.69;5052187;28;20449;-80
2023/01/21 00:49:56;;;;;;;14.93;11.37;;;;;;;3.82;100.00;94291.09;5017044;28;20452;-80
2023/01/21 00:52:22;;;;;;;13.20;10.50;;;;;;;3.86;100.00;94295.13;5052082;28;20445;-80
2023/01/21 00:54:49;;;;;;;14.10;10.80;;;;;;;3.79;100.00;94278.34;5016664;28;20434;-80
2023/01/21 00:57:16;;;;;;;18.80;10.30;;;;;;;3.79;100.00;94268.78;5052081;28;20481;-79
2023/01/21 00:59:46;;;;;;;15.13;11.43;;;;;;;3.66;100.00;94273.97;5017158;28;20460;-79
2023/01/21 01:02:13;;;;;;;20.43;12.87;;;;;;;3.78;100.00;94289.66;5055777;28;20522;-80
2023/01/21 01:04:40;;;;;;;18.50;12.37;;;;;;;3.73;100.00;94285.56;5056115;28;20437;-78
2023/01/21 01:07:07;;;;;;;13.70;10.93;;;;;;;3.82;100.00;94288.50;5055692;28;20915;-79
2023/01/21 01:09:34;;;;;;;18.50;12.00;;;;;;;4.02;100.00;94283.59;5056191;28;20927;-79
2023/01/21 01:12:01;;;;;;;19.77;12.53;;;;;;;3.94;100.00;94290.25;5056010;28;20507;-80
2023/01/21 01:14:27;;;;;;;18.30;13.93;;;;;;;3.86;100.00;94277.81;5055987;28;20441;-79
2023/01/21 01:16:55;;;;;;;16.50;13.13;;;;;;;3.96;100.00;94280.59;5056238;28;20484;-79
2023/01/21 01:19:22;;;;;;;15.40;11.77;;;;;;;3.66;100.00;94278.31;5004617;28;20448;-79
2023/01/21 01:21:49;;;;;;;17.60;10.93;;;;;;;3.64;100.00;94278.44;5055885;28;20951;-79
2023/01/21 01:24:16;;;;;;;13.10;9.57;;;;;;;3.60;100.00;94268.38;5020277;28;21013;-79
2023/01/21 01:26:43;;;;;;;13.00;10.17;;;;;;;3.66;100.00;94268.78;5055480;28;20445;-79
2023/01/21 01:29:11;;;;;;;14.80;9.57;;;;;;;3.82;100.00;94267.75;5055568;28;20450;-79
2023/01/21 01:31:38;;;;;;;15.37;10.10;;;;;;;3.85;100.00;94265.75;5055544;28;20445;-79
2023/01/21 01:34:06;;;;;;;9.57;8.57;;;;;;;3.99;100.00;94270.00;5055510;28;20449;-79
2023/01/21 01:36:33;;;;;;;11.97;7.37;;;;;;;3.88;100.00;94269.91;5055493;28;20837;-79
2023/01/21 01:39:00;;;;;;;11.93;7.87;;;;;;;3.90;100.00;94255.91;5055665;28;20518;-79
2023/01/21 01:41:29;;;;;;;6.90;6.20;;;;;;;3.96;100.00;94257.22;5004245;28;20846;-79
2023/01/21 01:43:59;;;;;;;13.10;8.17;;;;;;;3.99;100.00;94265.63;5055316;28;20808;-79
2023/01/21 01:46:28;;;;;;;10.13;6.80;;;;;;;4.07;100.00;94257.34;5055367;28;20815;-79
2023/01/21 01:49:00;;;;;;;8.90;7.00;;;;;;;4.20;100.00;94262.47;5055300;28;20445;-79
2023/01/21 01:51:34;;;;;;;10.20;6.97;;;;;;;4.18;100.00;94243.59;5055009;28;20931;-79
2023/01/21 01:54:03;;;;;;;11.23;6.53;;;;;;;4.09;100.00;94234.69;5019933;28;20432;-79
2023/01/21 01:56:30;;;;;;;10.00;7.30;;;;;;;4.15;100.00;94221.28;5055019;28;20479;-79
2023/01/21 01:58:57;;;;;;;10.50;7.13;;;;;;;3.91;100.00;94225.56;5054684;28;20507;-79
2023/01/21 02:01:24;;;;;;;8.63;6.93;;;;;;;4.03;100.00;94230.72;5054887;28;20449;-79
2023/01/21 02:03:58;;;;;;;6.50;5.90;;;;;;;4.14;100.00;94221.38;5054732;28;20453;-79
2023/01/21 02:06:26;;;;;;;7.87;7.07;;;;;;;4.27;100.00;94233.38;5055286;28;20536;-79
2023/01/21 02:08:56;;;;;;;7.80;7.00;;;;;;;4.26;100.00;94241.28;5054648;28;20445;-79
2023/01/21 02:11:23;;;;;;;11.37;7.27;;;;;;;4.18;100.00;94235.81;5054391;28;21022;-79
2023/01/21 02:13:53;;;;;;;7.70;7.00;;;;;;;4.01;100.00;94226.59;5054354;28;20445;-80
2023/01/21 02:17:07;;;;;;;11.60;8.37;;;;;;;3.92;100.00;94207.31;5004415;28;20472;-79
2023/01/21 02:20:17;;;;;;;12.00;9.77;;;;;;;3.92;100.00;94212.50;4935031;29;20451;-79
2023/01/21 02:22:53;;;;;;;10.37;7.83;;;;;;;3.92;100.00;94207.31;4935079;29;20434;-79
2023/01/21 02:25:56;;;;;;;10.87;8.63;;;;;;;4.00;100.00;94199.81;4934873;29;20482;-79
2023/01/21 02:29:05;;;;;;;8.90;8.00;;;;;;;3.65;100.00;94188.47;4935026;29;20497;-79
2023/01/21 02:32:02;;;;;;;12.10;8.90;;;;;;;3.33;100.00;94185.47;4896909;29;20440;-79
2023/01/21 02:34:39;;;;;;;11.63;9.10;;;;;;;3.50;100.00;94192.94;4859482;29;20454;-79
2023/01/21 02:37:11;;;;;;;13.10;8.80;;;;;;;3.50;100.00;94187.78;4859732;29;20891;-79
2023/01/21 02:39:54;;;;;;;13.60;9.70;;;;;;;3.22;100.00;94201.78;4859550;29;20898;-79
2023/01/21 02:42:28;;;;;;;22.63;12.17;;;;;;;3.11;100.00;94184.34;4844081;29;20435;-79
2023/01/21 02:45:04;;;;;;;19.10;12.00;;;;;;;3.19;100.00;94198.56;4859443;29;20446;-79
2023/01/21 02:47:37;;;;;;;19.27;12.70;;;;;;;3.34;100.00;94197.50;4813578;29;20462;-79
2023/01/21 02:50:11;;;;;;;15.47;11.80;;;;;;;3.53;100.00;94203.13;4859635;29;20499;-79
2023/01/21 02:52:38;;;;;;;20.40;12.20;;;;;;;3.47;100.00;94203.53;4862342;29;20445;-79
2023/01/21 02:55:06;;;;;;;15.33;10.93;;;;;;;3.54;100.00;94181.44;4878091;29;20450;-79
2023/01/21 02:57:52;;;;;;;15.33;10.30;;;;;;;3.62;100.00;94183.50;4923711;29;20581;-79
2023/01/21 03:00:25;;;;;;;14.00;9.20;;;;;;;3.69;100.00;94180.34;4934412;29;20867;-79
2023/01/21 03:03:21;;;;;;;17.83;9.10;;;;;;;3.83;100.00;94165.59;4934229;29;20576;-79
2023/01/21 03:06:04;;;;;;;10.80;7.87;;;;;;;3.83;100.00;94158.66;4934252;29;20957;-79
2023/01/21 03:08:40;;;;;;;13.47;9.57;;;;;;;4.01;100.00;94166.88;4970359;28;20502;-79
2023/01/21 03:11:14;;;;;;;12.17;9.83;;;;;;;4.15;100.00;94161.56;5005261;28;20948;-79
2023/01/21 03:19:19;;;;;;;10.37;8.97;;;;;;;4.47;100.00;94158.41;5053520;28;20425;-79
2023/01/21 03:21:50;;;;;;;9.43;7.50;;;;;;;4.58;100.00;94163.63;5054015;28;20429;-79
2023/01/21 03:24:18;;;;;;;13.00;9.30;;;;;;;4.71;100.00;94141.03;5053006;28;20469;-79
2023/01/21 03:26:50;;;;;;;10.00;8.93;;;;;;;4.83;100.00;94145.28;5052966;28;20928;-79
2023/01/21 03:29:21;;;;;;;14.57;10.07;;;;;;;4.87;100.00;94141.53;5053448;28;20437;-79
2023/01/21 03:31:54;;;;;;;15.03;10.80;;;;;;;4.81;99.28;94134.19;5053155;28;21046;-79
2023/01/21 03:34:25;;;;;;;17.90;12.83;;;;;;;4.68;100.00;94137.81;5053327;28;20878;-79
2023/01/21 03:36:57;;;;;;;15.23;12.07;;;;;;;4.55;100.00;94146.50;5053010;28;20489;-79
2023/01/21 03:39:34;;;;;;;25.70;16.47;;;;;;;4.39;100.00;94137.38;5053155;28;20491;-79
2023/01/21 03:42:02;;;;;;;16.60;10.70;;;;;;;4.03;100.00;94134.69;5035360;28;20462;-79
2023/01/21 03:44:29;;;;;;;16.03;11.70;;;;;;;4.01;100.00;94128.78;5018047;28;20850;-79
2023/01/21 03:47:05;;;;;;;16.77;11.80;;;;;;;4.02;100.00;94121.81;5053274;28;20441;-79
2023/01/21 03:49:34;;;;;;;35.90;18.83;;;;;;;3.96;100.00;94119.66;5052893;28;20449;-79
2023/01/21 03:52:05;;;;;;;32.40;17.40;;;;;;;4.00;100.00;94126.28;5053152;28;20874;-79
2023/01/21 03:54:32;;;;;;;16.80;13.33;;;;;;;3.87;100.00;94115.16;5052935;28;20445;-79
2023/01/21 03:56:59;;;;;;;14.57;11.00;;;;;;;3.69;100.00;94099.09;5052806;28;21009;-79
2023/01/21 03:59:26;;;;;;;9.10;7.50;;;;;;;3.73;100.00;94100.53;5052982;28;20988;-79
2023/01/21 04:01:52;;;;;;;7.97;7.00;;;;;;;3.54;100.00;94103.63;5052956;28;20441;-79
2023/01/21 04:04:22;;;;;;;10.80;8.70;;;;;;;3.67;100.00;94093.19;5052709;28;20841;-79
2023/01/21 04:06:54;;;;;;;13.60;9.03;;;;;;;3.88;100.00;94090.84;5056566;28;20990;-79
2023/01/21 04:09:28;;;;;;;10.60;8.07;;;;;;;4.03;100.00;94094.94;5071721;28;20448;-79
2023/01/21 04:11:54;;;;;;;11.83;8.73;;;;;;;4.13;100.00;94089.91;5054999;28;20453;-79
2023/01/21 04:14:21;;;;;;;17.90;11.60;;;;;;;4.18;100.00;94088.63;5052994;28;20954;-79
2023/01/21 04:16:48;;;;;;;22.73;15.30;;;;;;;4.29;100.00;94093.88;5068073;28;20464;-79
2023/01/21 04:19:15;;;;;;;21.00;15.43;;;;;;;4.41;100.00;94088.72;5056448;28;20445;-79
2023/01/21 04:21:41;;;;;;;18.50;11.70;;;;;;;4.38;100.00;94089.78;5063036;28;20437;-79
2023/01/21 04:24:08;;;;;;;27.50;17.80;;;;;;;4.26;100.00;94088.91;5072585;28;20448;-79
2023/01/21 04:26:37;;;;;;;16.47;11.43;;;;;;;4.12;100.00;94089.09;5072304;28;20452;-79
2023/01/21 04:29:04;;;;;;;19.70;13.60;;;;;;;4.14;100.00;94107.97;5072586;28;20467;-79
2023/01/21 04:31:31;;;;;;;16.20;13.27;;;;;;;4.14;100.00;94110.56;5072393;28;20441;-79
2023/01/21 04:33:58;;;;;;;16.60;12.70;;;;;;;4.11;100.00;94104.78;5020723;28;20962;-79
2023/01/21 04:36:25;;;;;;;18.43;13.80;;;;;;;4.15;100.00;94114.00;5071653;28;20513;-79
2023/01/21 04:38:51;;;;;;;19.70;13.30;;;;;;;4.21;100.00;94123.94;5071993;28;20491;-79
2023/01/21 04:41:18;;;;;;;18.03;11.40;;;;;;;4.22;100.00;94104.81;5071125;28;20448;-79
2023/01/21 04:43:47;;;;;;;16.27;11.47;;;;;;;4.25;100.00;94113.22;5071952;28;20456;-79
2023/01/21 04:46:13;;;;;;;14.20;11.87;;;;;;;4.34;100.00;94120.34;5072209;28;20473;-79
2023/01/21 04:48:40;;;;;;;15.03;12.23;;;;;;;4.44;100.00;94120.50;5072372;28;20455;-79
2023/01/21 04:51:07;;;;;;;15.57;10.50;;;;;;;4.32;100.00;94116.19;5072024;28;20514;-79
2023/01/21 04:53:34;;;;;;;14.33;10.17;;;;;;;4.39;100.00;94122.59;5072122;28;20456;-79
2023/01/21 04:56:00;;;;;;;12.30;9.27;;;;;;;4.39;100.00;94137.38;5072136;28;20448;-79
2023/01/21 04:58:27;;;;;;;8.80;7.63;;;;;;;4.41;100.00;94128.53;5071857;28;21018;-79
2023/01/21 05:00:56;;;;;;;6.93;6.23;;;;;;;4.39;100.00;94134.78;5072304;28;20449;-80
2023/01/21 05:03:22;;;;;;;4.97;4.50;;;;;;;4.47;100.00;94138.44;5019829;28;20440;-79
2023/01/21 05:05:49;;;;;;;5.27;4.77;;;;;;;4.49;100.00;94135.75;5071906;28;20448;-79
2023/01/21 05:08:16;;;;;;;6.10;5.30;;;;;;;4.49;100.00;94114.97;5071854;28;20444;-80
2023/01/21 05:10:43;;;;;;;5.63;4.60;;;;;;;4.62;100.00;94123.50;5071497;28;20523;-79
2023/01/21 05:13:09;;;;;;;6.90;6.03;;;;;;;4.42;100.00;94139.72;5071721;28;20965;-79
2023/01/21 05:15:36;;;;;;;12.30;8.70;;;;;;;4.58;100.00;94141.09;5071756;28;20444;-79
2023/01/21 05:18:04;;;;;;;13.17;9.07;;;;;;;4.41;100.00;94157.09;5071854;28;20483;-79
2023/01/21 05:20:31;;;;;;;11.10;8.90;;;;;;;4.31;100.00;94141.31;5071918;28;20454;-81
2023/01/21 05:22:58;;;;;;;8.80;7.27;;;;;;;4.46;100.00;94148.97;5072686;28;20828;-79
2023/01/21 05:25:25;;;;;;;10.07;7.50;;;;;;;4.61;100.00;94142.63;5073179;28;20570;-80
2023/01/21 05:27:52;;;;;;;14.07;10.33;;;;;;;4.58;100.00;94154.06;5073434;28;20444;-84
2023/01/21 05:30:20;;;;;;;8.57;6.33;;;;;;;4.63;100.00;94156.34;5073734;28;20823;-82
2023/01/21 05:32:50;;;;;;;13.73;7.73;;;;;;;4.63;100.00;94161.56;5072721;28;20942;-79
2023/01/21 05:35:19;;;;;;;19.93;10.33;;;;;;;4.69;99.56;94166.28;5073121;28;20448;-79
2023/01/21 05:37:46;;;;;;;10.90;8.20;;;;;;;4.76;100.00;94172.69;4988635;28;21002;-79
2023/01/21 05:40:14;;;;;;;15.70;11.07;;;;;;;4.80;99.46;94162.91;5072857;28;20448;-78
2023/01/21 05:42:41;;;;;;;19.27;13.90;;;;;;;4.88;100.00;94176.97;5072766;28;20494;-78
2023/01/21 05:45:09;;;;;;;12.10;9.77;;;;;;;4.88;98.88;94174.38;5072634;28;20515;-78
2023/01/21 05:47:36;;;;;;;14.27;9.03;;;;;;;4.92;99.57;94167.19;5075510;28;20440;-79
2023/01/21 05:50:04;;;;;;;13.77;10.60;;;;;;;5.03;98.94;94172.41;5076031;28;20958;-78
2023/01/21 05:52:32;;;;;;;16.00;11.50;;;;;;;5.08;98.22;94182.47;5076230;28;20923;-78
2023/01/21 05:54:59;;;;;;;21.70;12.53;;;;;;;5.10;98.03;94180.59;5076292;28;20445;-78
2023/01/21 05:57:26;;;;;;;25.23;15.90;;;;;;;5.13;98.18;94191.56;5041192;28;20444;-78
2023/01/21 05:59:52;;;;;;;33.70;18.30;;;;;;;5.19;98.04;94185.09;5075966;28;20447;-79
2023/01/21 06:02:19;;;;;;;60.90;30.40;;;;;;;5.05;97.91;94175.72;5076445;28;20985;-79
2023/01/21 06:04:46;;;;;;;45.53;26.17;;;;;;;5.10;97.49;94184.00;5024803;28;20440;-79
2023/01/21 06:07:13;;;;;;;60.97;29.10;;;;;;;5.17;97.31;94186.97;5076348;28;20470;-78
2023/01/21 06:09:41;;;;;;;59.03;31.07;;;;;;;5.19;98.42;94182.47;5076311;28;20432;-79
2023/01/21 06:12:08;;;;;;;57.37;33.30;;;;;;;5.23;97.66;94189.13;5076115;28;20875;-80
2023/01/21 06:14:34;;;;;;;34.37;20.93;;;;;;;5.25;99.22;94195.88;5075698;28;20459;-80
2023/01/21 06:17:01;;;;;;;29.10;15.53;;;;;;;5.31;98.88;94194.59;5075647;28;20505;-81
2023/01/21 06:19:28;;;;;;;26.00;16.37;;;;;;;5.36;97.53;94192.47;5076250;28;20619;-79
2023/01/21 06:21:55;;;;;;;19.60;11.90;;;;;;;5.42;98.32;94197.19;5075953;28;20444;-80
2023/01/21 06:24:21;;;;;;;18.53;12.90;;;;;;;5.48;97.79;94201.91;5075573;28;20875;-80
2023/01/21 06:26:49;;;;;;;15.50;10.57;;;;;;;5.52;97.63;94200.78;5075923;28;20432;-79
2023/01/21 06:29:16;;;;;;;16.90;10.70;;;;;;;5.49;97.16;94188.00;5075784;28;20443;-81
2023/01/21 06:31:43;;;;;;;15.93;12.80;;;;;;;5.56;96.49;94212.59;5075719;28;20440;-81
2023/01/21 06:34:11;;;;;;;13.03;9.93;;;;;;;5.63;97.09;94217.31;5076446;28;20939;-80
2023/01/21 06:36:39;;;;;;;21.77;15.30;;;;;;;5.64;96.57;94216.38;5075403;28;20515;-80
2023/01/21 06:39:08;;;;;;;16.90;14.30;;;;;;;5.60;96.99;94214.00;5077265;28;20484;-80
2023/01/21 06:41:35;;;;;;;13.00;11.57;;;;;;;5.65;96.72;94218.03;5026134;28;20787;-80
2023/01/21 06:44:03;;;;;;;11.93;10.40;;;;;;;5.68;96.30;94220.41;5024383;28;20444;-80
2023/01/21 06:46:30;;;;;;;14.03;9.90;;;;;;;5.68;96.14;94212.59;5075641;28;20442;-80
2023/01/21 06:48:57;;;;;;;13.73;10.10;;;;;;;5.67;97.16;94213.53;5076124;28;20546;-82
2023/01/21 06:51:24;;;;;;;12.83;10.27;;;;;;;5.71;96.77;94209.75;5075723;28;20448;-79
2023/01/21 06:53:50;;;;;;;15.83;9.83;;;;;;;5.74;97.70;94202.53;5039956;28;21146;-80
2023/01/21 06:56:17;;;;;;;14.57;10.07;;;;;;;5.77;97.71;94209.28;5075588;28;20448;-80
2023/01/21 06:58:44;;;;;;;17.43;9.80;;;;;;;5.81;98.21;94228.94;5076867;28;20472;-80
2023/01/21 07:01:12;;;;;;;23.63;18.73;;;;;;;5.83;98.00;94247.88;5076885;28;20451;-82
2023/01/21 07:03:39;;;;;;;22.17;18.07;;;;;;;5.89;97.82;94247.41;5075605;28;20452;-80
2023/01/21 07:06:07;;;;;;;17.63;14.17;;;;;;;5.96;97.59;94248.63;5075332;28;20453;-81
2023/01/21 07:08:33;;;;;;;21.48;16.40;;;;;;;6.08;98.02;94246.84;5074688;28;20442;-79
2023/01/21 07:11:00;;;;;;;15.40;11.90;;;;;;;6.18;97.76;94237.38;5074762;28;20187;-80
2023/01/21 07:13:27;;;;;;;17.03;11.60;;;;;;;6.22;98.00;94233.56;5074830;28;20457;-80
2023/01/21 07:15:59;;;;;;;13.17;11.10;;;;;;;6.29;97.52;94229.53;5072715;28;20465;-80
2023/01/21 07:18:27;;;;;;;10.47;8.20;;;;;;;6.21;96.51;94235.34;5060840;28;20563;-79
2023/01/21 07:20:54;;;;;;;19.10;12.87;;;;;;;6.13;97.08;94229.91;5064213;28;20793;-79
2023/01/21 07:23:21;;;;;;;11.83;10.40;;;;;;;6.21;96.84;94224.09;5071932;28;20757;-79
2023/01/21 07:25:48;;;;;;;11.97;10.23;;;;;;;6.31;97.17;94238.06;5072404;28;20471;-80
2023/01/21 07:28:15;;;;;;;8.60;6.43;;;;;;;6.34;96.81;94221.34;5017073;28;20445;-80
2023/01/21 07:30:42;;;;;;;7.20;6.50;;;;;;;6.33;95.28;94230.94;5054285;28;20924;-80
2023/01/21 07:33:10;;;;;;;10.60;7.40;;;;;;;6.45;94.56;94247.41;5057397;28;20444;-79
2023/01/21 07:35:38;;;;;;;17.70;11.57;;;;;;;6.54;94.60;94246.66;5060622;28;20445;-81
2023/01/21 07:38:05;;;;;;;21.90;14.63;;;;;;;6.64;94.25;94229.34;5065797;28;20858;-80
2023/01/21 07:40:31;;;;;;;18.23;12.97;;;;;;;6.62;95.26;94220.81;5065251;28;20441;-80
2023/01/21 07:42:58;;;;;;;20.63;13.17;;;;;;;6.79;95.36;94216.84;5060650;28;20449;-78
2023/01/21 07:45:25;;;;;;;26.77;16.13;;;;;;;6.90;95.88;94234.22;5070978;28;20453;-78
2023/01/21 07:47:52;;;;;;;37.63;22.70;;;;;;;6.95;94.24;94226.88;5071294;28;20437;-78
2023/01/21 07:50:19;;;;;;;37.13;22.90;;;;;;;6.96;93.58;94221.53;5052152;28;20558;-78
2023/01/21 07:52:47;;;;;;;46.03;26.87;;;;;;;6.98;93.70;94224.84;5052498;28;20450;-79
2023/01/21 07:55:14;;;;;;;40.83;25.77;;;;;;;7.05;94.22;94233.00;5053124;28;20446;-78
2023/01/21 07:57:40;;;;;;;28.13;18.83;;;;;;;6.93;92.98;94229.59;5065153;28;20433;-78
2023/01/21 08:00:09;;;;;;;33.00;19.00;;;;;;;6.95;92.90;94227.72;5055000;28;20480;-78
2023/01/21 08:02:36;;;;;;;24.30;17.80;;;;;;;6.99;92.81;94234.34;5060158;28;20816;-79
2023/01/21 08:05:03;;;;;;;21.87;16.30;;;;;;;7.02;92.62;94234.09;5069060;28;20448;-79
2023/01/21 08:07:30;;;;;;;31.37;18.30;;;;;;;6.98;91.92;94226.63;5069638;28;20475;-78
2023/01/21 08:09:58;;;;;;;26.20;15.13;;;;;;;6.95;91.56;94230.31;5069296;28;20455;-78
2023/01/21 08:12:25;;;;;;;18.10;13.60;;;;;;;6.81;91.81;94246.25;5066617;28;20444;-79
2023/01/21 08:14:51;;;;;;;13.83;9.53;;;;;;;6.86;90.47;94249.31;5070102;28;20444;-78
2023/01/21 08:17:18;;;;;;;12.70;10.00;;;;;;;6.97;90.66;94241.47;5069333;28;20806;-78
2023/01/21 08:19:45;;;;;;;9.80;8.80;;;;;;;7.07;91.22;94212.84;5070105;28;20492;-79
2023/01/21 08:22:12;;;;;;;15.20;9.27;;;;;;;6.75;91.20;94226.72;5017396;28;20932;-79
2023/01/21 08:24:38;;;;;;;14.90;8.57;;;;;;;6.91;90.83;94215.03;5033209;28;20563;-79
2023/01/21 08:27:06;;;;;;;12.63;8.70;;;;;;;6.86;91.32;94228.44;5070194;28;20808;-78
2023/01/21 08:29:33;;;;;;;26.23;15.80;;;;;;;6.93;90.84;94228.75;5068707;28;20459;-78
2023/01/21 08:32:00;;;;;;;4.67;4.27;;;;;;;6.96;91.42;94245.03;5071037;28;20451;-78
2023/01/21 08:34:27;;;;;;;6.70;6.10;;;;;;;7.09;90.50;94239.63;5066754;28;20446;-78
2023/01/21 08:36:54;;;;;;;13.37;9.37;;;;;;;7.10;89.79;94239.50;5053143;28;20453;-79
2023/01/21 08:39:20;;;;;;;11.97;8.10;;;;;;;7.21;89.97;94241.22;5019759;28;20485;-79
2023/01/21 08:41:47;;;;;;;7.33;6.50;;;;;;;7.27;90.37;94240.72;5055371;28;20816;-79
2023/01/21 08:44:15;;;;;;;6.13;5.20;;;;;;;7.42;90.71;94236.00;5055426;28;20441;-79
2023/01/21 08:46:42;;;;;;;8.77;6.77;;;;;;;7.51;88.97;94250.06;5069785;28;20454;-80
2023/01/21 08:49:09;;;;;;;14.97;8.10;;;;;;;7.60;88.84;94250.16;5073241;28;20438;-80
2023/01/21 08:51:36;;;;;;;27.50;15.23;;;;;;;7.60;89.56;94238.88;5057878;28;20830;-80
2023/01/21 08:54:04;;;;;;;19.87;10.43;;;;;;;7.64;89.06;94250.72;5062113;28;20453;-80
2023/01/21 08:56:30;;;;;;;12.43;8.50;;;;;;;7.74;88.91;94247.22;5068279;28;20453;-79
2023/01/21 08:58:58;;;;;;;7.03;4.90;;;;;;;7.80;89.37;94251.06;5066070;28;20474;-80
2023/01/21 09:01:27;;;;;;;7.63;4.70;;;;;;;7.85;88.12;94248.09;5059301;28;20453;-79
2023/01/21 09:03:55;;;;;;;4.80;4.40;;;;;;;7.89;87.54;94260.78;5053073;28;20442;-79
2023/01/21 09:06:23;;;;;;;16.77;12.00;;;;;;;7.80;88.19;94251.06;5052718;28;20525;-80
2023/01/21 09:08:50;;;;;;;20.50;14.77;;;;;;;7.86;86.75;94255.81;5063499;28;20431;-79
2023/01/21 09:11:17;;;;;;;26.73;18.17;;;;;;;7.88;86.99;94259.13;5059946;28;20945;-79
2023/01/21 09:13:44;;;;;;;49.27;21.60;;;;;;;7.90;87.83;94265.03;5071343;28;20439;-79
2023/01/21 09:16:13;;;;;;;13.37;10.93;;;;;;;7.97;88.44;94274.00;5062664;28;20489;-81
2023/01/21 09:18:42;;;;;;;22.13;14.73;;;;;;;7.65;88.40;94273.28;5070713;28;20894;-81
2023/01/21 09:21:10;;;;;;;8.43;6.60;;;;;;;7.74;89.16;94256.81;5065219;28;20460;-81
2023/01/21 09:23:38;;;;;;;6.03;5.20;;;;;;;7.57;90.24;94255.63;5062085;28;20528;-81
2023/01/21 09:26:08;;;;;;;10.63;4.90;;;;;;;7.60;90.11;94238.88;5068461;28;20466;-81
2023/01/21 09:28:36;;;;;;;6.53;5.20;;;;;;;7.53;92.04;94240.38;5056194;28;20446;-81
2023/01/21 09:31:05;;;;;;;6.93;5.50;;;;;;;7.57;91.60;94250.41;5071693;28;20445;-81
2023/01/21 09:33:33;;;;;;;6.20;5.63;;;;;;;7.64;93.69;94241.13;5071924;28;20444;-81
2023/01/21 09:36:03;;;;;;;5.43;4.93;;;;;;;7.71;92.77;94236.19;5058492;28;20447;-82
2023/01/21 09:38:32;;;;;;;9.63;5.90;;;;;;;7.75;90.96;94230.59;5064573;28;20468;-82
2023/01/21 09:41:04;;;;;;;4.97;4.50;;;;;;;7.85;90.53;94229.81;5060147;28;20957;-81
2023/01/21 09:43:37;;;;;;;4.77;4.33;;;;;;;7.96;90.56;94229.72;5071061;28;20438;-81
2023/01/21 09:46:10;;;;;;;5.00;4.50;;;;;;;8.11;90.41;94233.66;5061817;28;20842;-81
2023/01/21 09:48:41;;;;;;;6.90;5.20;;;;;;;8.18;89.61;94220.88;5064567;28;20473;-81
2023/01/21 09:51:17;;;;;;;6.80;4.90;;;;;;;8.27;88.96;94218.28;5031497;28;20932;-82
2023/01/21 09:53:49;;;;;;;7.37;5.70;;;;;;;8.45;88.25;94215.09;5066924;28;20496;-82
2023/01/21 09:56:25;;;;;;;5.80;4.93;;;;;;;8.50;88.61;94208.50;5066349;28;20455;-80
2023/01/21 09:59:01;;;;;;;4.53;4.10;;;;;;;8.66;86.45;94200.94;5065333;28;20474;-81
2023/01/21 10:01:33;;;;;;;4.90;4.50;;;;;;;8.76;86.86;94202.75;5064062;28;20490;-82
2023/01/21 10:04:14;;;;;;;4.20;3.80;;;;;;;8.79;85.93;94200.69;5062186;28;20440;-81
2023/01/21 10:06:50;;;;;;;5.53;4.80;;;;;;;8.92;85.17;94190.78;5020588;28;20450;-81
2023/01/21 10:09:32;;;;;;;6.57;5.97;;;;;;;8.91;85.97;94206.63;5067324;28;20440;-82
2023/01/21 10:12:13;;;;;;;5.00;4.53;;;;;;;8.77;86.30;94196.56;5042973;28;20467;-82
2023/01/21 10:15:09;;;;;;;5.23;4.30;;;;;;;8.77;86.75;94194.78;5066264;28;20454;-82
2023/01/21 10:17:46;;;;;;;10.63;4.60;;;;;;;8.78;87.29;94191.19;5060522;28;20452;-81
2023/01/21 10:20:17;;;;;;;7.43;5.57;;;;;;;8.73;88.19;94192.56;5073781;28;20483;-81
2023/01/21 10:22:51;;;;;;;5.60;5.10;;;;;;;8.80;87.16;94183.22;5062027;28;20455;-81
2023/01/21 10:25:24;;;;;;;8.50;5.07;;;;;;;8.89;87.04;94179.75;5067137;28;20491;-81
2023/01/21 10:27:52;;;;;;;5.40;4.90;;;;;;;9.02;86.55;94177.72;5062428;28;20813;-81
2023/01/21 10:30:24;;;;;;;6.10;5.17;;;;;;;9.18;87.09;94177.97;5074510;28;20515;-81
2023/01/21 10:32:54;;;;;;;5.10;4.60;;;;;;;9.23;86.28;94173.13;5067407;28;20442;-80
2023/01/21 10:35:42;;;;;;;5.90;4.80;;;;;;;9.22;85.00;94179.34;5071903;28;20935;-80
2023/01/21 10:38:21;;;;;;;6.10;5.03;;;;;;;9.34;84.88;94177.41;5057690;28;20493;-80
2023/01/21 10:40:56;;;;;;;6.87;5.20;;;;;;;9.37;84.07;94184.16;5071640;28;20491;-80
2023/01/21 10:43:36;;;;;;;6.40;5.60;;;;;;;9.47;83.83;94182.34;5056977;28;20461;-80
2023/01/21 10:46:11;;;;;;;5.43;4.87;;;;;;;9.45;83.33;94163.31;5013958;28;20452;-79
2023/01/21 10:48:45;;;;;;;5.83;4.10;;;;;;;9.64;83.90;94142.34;5059644;28;20433;-81
2023/01/21 10:51:19;;;;;;;10.60;5.50;;;;;;;9.74;83.77;94145.72;5056247;28;20456;-81
2023/01/21 10:53:55;;;;;;;7.07;4.80;;;;;;;9.77;83.48;94155.09;5073008;28;20449;-79
2023/01/21 10:56:30;;;;;;;4.70;4.23;;;;;;;9.87;81.75;94156.72;5067361;28;20819;-80
2023/01/21 10:59:00;;;;;;;4.33;3.63;;;;;;;10.00;82.09;94159.00;5054413;28;20947;-81
2023/01/21 11:01:30;;;;;;;3.93;3.63;;;;;;;10.04;80.52;94152.50;5061683;28;20958;-80
2023/01/21 11:04:00;;;;;;;4.17;3.77;;;;;;;10.05;80.58;94145.47;5068237;28;20448;-80
2023/01/21 11:06:31;;;;;;;6.27;4.50;;;;;;;10.16;81.75;94140.06;5054285;28;20548;-81
2023/01/21 11:09:03;;;;;;;5.63;4.18;;;;;;;10.30;80.26;94138.75;5054750;28;20450;-84
2023/01/21 11:11:34;;;;;;;12.80;4.00;;;;;;;10.42;81.28;94138.41;5063260;28;20967;-83
2023/01/21 11:14:01;;;;;;;8.37;5.17;;;;;;;10.52;80.07;94138.34;5055251;28;20449;-81
2023/01/21 11:16:37;;;;;;;3.60;3.30;;;;;;;10.44;78.36;94140.88;5054404;28;20445;-83
2023/01/21 11:19:05;;;;;;;4.70;4.13;;;;;;;10.50;78.75;94137.66;5054829;28;20453;-84
2023/01/21 11:21:32;;;;;;;4.00;3.70;;;;;;;10.68;79.26;94148.16;5054465;28;20437;-83
2023/01/21 11:24:02;;;;;;;4.43;3.23;;;;;;;10.83;79.28;94149.31;5055604;28;20449;-85
2023/01/21 11:26:31;;;;;;;3.53;3.30;;;;;;;10.93;78.94;94152.69;5055051;28;20477;-83
2023/01/21 11:29:11;;;;;;;6.30;3.67;;;;;;;11.05;78.25;94150.66;5054821;28;20825;-80
2023/01/21 11:31:39;;;;;;;3.63;3.33;;;;;;;11.18;77.85;94141.41;5060943;28;20506;-78
2023/01/21 11:34:10;;;;;;;6.47;4.67;;;;;;;11.30;79.50;94138.56;5073466;28;20506;-81
2023/01/21 11:36:37;;;;;;;13.73;7.50;;;;;;;11.19;76.35;94139.59;5072966;28;20453;-80
2023/01/21 11:39:08;;;;;;;6.50;4.50;;;;;;;11.13;77.07;94132.34;5017933;28;20449;-80
2023/01/21 11:41:35;;;;;;;4.30;3.87;;;;;;;11.12;75.82;94136.78;5053327;28;20441;-80
2023/01/21 11:44:17;;;;;;;4.23;3.70;;;;;;;11.14;76.94;94134.00;5053119;28;20970;-80